Terminal Aerodrome Forecast
Issued by NWS

Home | Current Version | Previous Version | Text Only | Print | Product List | Glossary On
Versions: 1 2 3 4 5 6 7 8 9 10 11 12 13 14 15 16 17 18 19 20 21 22 23 24 25 26 27 28 29 30 31
000
FTUS46 KOTX 081139
TAFSFF
TAF
KSFF 081139Z 0812/0912 00000KT P6SM BKN200
     FM081300 VRB03KT 6SM PRFG SCT004
     FM081700 06004KT P6SM SCT200
     FM090600 VRB02KT P6SM FEW004
     FM091000 VRB02KT 3SM BR OVC006=

USA.gov is the U.S. government's official web portal to all federal, state and local government web resources and services.